createdAt,value
2018-07-19T21:26:39.032Z,5.97
2018-07-19T21:29:07.249Z,6.07
2018-07-19T21:31:35.472Z,5.67
2018-07-19T21:34:03.473Z,6.40
2018-07-19T21:36:31.801Z,5.70
2018-07-19T21:39:00.011Z,6.50
2018-07-19T21:41:28.204Z,6.37
2018-07-19T21:43:56.421Z,7.13
2018-07-19T21:46:24.640Z,7.23
2018-07-19T21:48:52.834Z,6.03
2018-07-19T21:51:21.041Z,6.27
2018-07-19T21:53:49.241Z,6.20
2018-07-19T21:56:17.470Z,5.83
2018-07-19T21:58:45.658Z,5.50
2018-07-19T22:01:13.858Z,5.57
2018-07-19T22:03:42.113Z,7.40
2018-07-19T22:06:10.313Z,5.70
2018-07-19T22:08:38.509Z,6.33
2018-07-19T22:11:06.711Z,6.33
2018-07-19T22:13:34.914Z,6.77
2018-07-19T22:16:03.093Z,7.20
2018-07-19T22:18:31.305Z,6.20
2018-07-19T22:20:59.513Z,5.37
2018-07-19T22:23:27.713Z,5.93
2018-07-19T22:25:55.954Z,6.53
2018-07-19T22:28:24.110Z,7.40
2018-07-19T22:30:52.302Z,8.00
2018-07-19T22:33:20.497Z,8.13
2018-07-19T22:35:48.723Z,7.60
2018-07-19T22:38:16.925Z,6.70
2018-07-19T22:40:45.117Z,6.00
2018-07-19T22:43:13.325Z,5.80
2018-07-19T22:45:41.524Z,5.57
2018-07-19T22:48:09.751Z,6.37
2018-07-19T22:50:38.018Z,6.77
2018-07-19T22:53:06.228Z,5.20
2018-07-19T22:55:34.437Z,5.83
2018-07-19T22:58:02.665Z,5.70
2018-07-19T23:00:30.914Z,9.83
2018-07-19T23:02:59.129Z,14.20
2018-07-19T23:05:27.345Z,10.57
2018-07-19T23:07:55.561Z,19.93
2018-07-19T23:10:23.765Z,11.50
2018-07-19T23:12:52.010Z,8.37
2018-07-19T23:15:20.214Z,8.50
2018-07-19T23:17:48.458Z,7.27
2018-07-19T23:20:16.782Z,6.20
2018-07-19T23:22:54.217Z,5.77
2018-07-19T23:25:22.436Z,5.83
2018-07-19T23:27:50.810Z,6.07
2018-07-19T23:30:19.407Z,6.57
2018-07-19T23:32:48.118Z,5.63
2018-07-19T23:35:16.631Z,5.50
2018-07-19T23:37:46.647Z,5.37
2018-07-19T23:40:19.326Z,6.13
2018-07-19T23:42:51.700Z,5.33
2018-07-19T23:45:23.746Z,5.93
2018-07-19T23:47:52.358Z,6.03
2018-07-19T23:50:20.645Z,5.40
2018-07-19T23:52:49.939Z,6.10
2018-07-19T23:55:18.119Z,6.63
2018-07-19T23:57:46.317Z,6.67
